PWSweather.com
Personal Weather Stations
Station Observations
PHMDWX
Perry Hall, MD 21236

Perry Hall, MD 21236

Lat: 39.418318, Lon: -76.490039

Elevation: 305

Station Type: Davis Vantage Pro

Latest ConditionsUpdated 7:00:02 PM EST Tuesday, Jan 23, 2018
Currently Today's Max Today's Min Today's Average
Temperature 48.6°F9.2°C 64.2°F17.9°C 44.5°F6.9°C 51.8°F11.0°C
Dew Point 29.8°F-1.2°C 57.2°F14.0°C 29.7°F-1.3°C 44.4°F6.9°C
Winds 10.5 mph W16.9 kmh W 14.1 mph WSW22.7 kmh WSW - 5.1 mph 8.2 kmh
Wind Gusts 16.0 mph25.7 kmh 26.0 mph41.8 kmh - -
Humidity 48% 99% 44% 78%
Pressure 29.72 in1006.4 mb 29.91 in1012.9 mb 29.53 in1000.0 mb -
Precipitation - 0.22 in5.6 mm - -
Hour Temp Dew Point Humidity Winds Wind Gusts Pressure Precip Precip Rate Daily Precip Total
07:00 PM 48.6°F9.2°C 29.8°F-1.2°C 48% 10.5 mph W16.9 kmh W 16.0 mph25.7 kmh 29.72 in1006.4 mb - 0.00 in0.0 mm 0.22 in5.6 mm
06:30 PM 49.0°F9.4°C 30.2°F-1.0°C 48% 6.3 mph NW10.1 kmh NW 10.0 mph16.1 kmh 29.70 in1005.8 mb - 0.00 in0.0 mm 0.22 in5.6 mm
06:00 PM 50.2°F10.1°C 29.7°F-1.3°C 45% 8.2 mph NW13.2 kmh NW 12.0 mph19.3 kmh 29.69 in1005.4 mb - 0.00 in0.0 mm 0.22 in5.6 mm
05:30 PM 51.3°F10.7°C 30.1°F-1.1°C 44% 10.5 mph WSW16.9 kmh WSW 26.0 mph41.8 kmh 29.67 in1004.7 mb - 0.00 in0.0 mm 0.22 in5.6 mm
05:00 PM 52.2°F11.2°C 31.5°F-0.3°C 45% 14.1 mph WSW22.7 kmh WSW 21.0 mph33.8 kmh 29.65 in1004.1 mb - 0.00 in0.0 mm 0.22 in5.6 mm
04:30 PM 53.3°F11.8°C 33.0°F0.6°C 46% 8.6 mph WSW13.8 kmh WSW 13.0 mph20.9 kmh 29.63 in1003.4 mb - 0.00 in0.0 mm 0.22 in5.6 mm
04:00 PM 55.3°F12.9°C 38.4°F3.6°C 53% 7.4 mph N11.9 kmh N 20.0 mph32.2 kmh 29.61 in1002.7 mb - 0.00 in0.0 mm 0.22 in5.6 mm
03:30 PM 56.2°F13.4°C 41.2°F5.1°C 57% 6.2 mph NNW10.0 kmh NNW 13.0 mph20.9 kmh 29.60 in1002.4 mb - 0.00 in0.0 mm 0.22 in5.6 mm
03:00 PM 58.0°F14.4°C 45.0°F7.2°C 62% 9.2 mph W14.8 kmh W 13.0 mph20.9 kmh 29.56 in1001.0 mb - 0.00 in0.0 mm 0.22 in5.6 mm
02:30 PM 59.5°F15.3°C 45.2°F7.3°C 59% 9.9 mph NW15.9 kmh NW 14.0 mph22.5 kmh 29.55 in1000.7 mb - 0.00 in0.0 mm 0.22 in5.6 mm
02:00 PM 61.0°F16.1°C 48.7°F9.3°C 64% 6.1 mph W9.8 kmh W 7.0 mph11.3 kmh 29.53 in1000.0 mb - 0.00 in0.0 mm 0.22 in5.6 mm
01:30 PM 64.2°F17.9°C 49.6°F9.8°C 59% 6.2 mph NNE10.0 kmh NNE 11.0 mph17.7 kmh 29.53 in1000.0 mb - 0.00 in0.0 mm 0.22 in5.6 mm
01:00 PM 64.2°F17.9°C 50.0°F10.0°C 60% 6.4 mph NW10.3 kmh NW 12.0 mph19.3 kmh 29.53 in1000.0 mb - 0.00 in0.0 mm 0.22 in5.6 mm
12:30 PM 61.3°F16.3°C 50.2°F10.1°C 67% 7.9 mph NW12.7 kmh NW 13.0 mph20.9 kmh 29.55 in1000.7 mb - 0.00 in0.0 mm 0.22 in5.6 mm
12:00 PM 60.4°F15.8°C 52.8°F11.6°C 76% 6.4 mph NW10.3 kmh NW 14.0 mph22.5 kmh 29.57 in1001.4 mb - 0.00 in0.0 mm 0.22 in5.6 mm
11:30 AM 58.3°F14.6°C 57.2°F14.0°C 96% 3.9 mph WNW6.3 kmh WNW 5.0 mph8.0 kmh 29.58 in1001.7 mb - 0.00 in0.0 mm 0.22 in5.6 mm
11:00 AM 55.9°F13.3°C 55.7°F13.2°C 99% 3.4 mph NNW5.5 kmh NNW 6.0 mph9.7 kmh 29.59 in1002.0 mb - 0.00 in0.0 mm 0.22 in5.6 mm
10:30 AM 52.9°F11.6°C 52.6°F11.4°C 99% 0.8 mph W1.3 kmh W 2.0 mph3.2 kmh 29.61 in1002.7 mb - 0.11 in2.8 mm 0.22 in5.6 mm
10:00 AM 52.9°F11.6°C 52.6°F11.4°C 99% 3.8 mph SSE6.1 kmh SSE 6.0 mph9.7 kmh 29.60 in1002.4 mb - 0.00 in0.0 mm 0.11 in2.8 mm
09:30 AM 52.8°F11.6°C 52.5°F11.4°C 99% 2.7 mph SSE4.3 kmh SSE 6.0 mph9.7 kmh 29.62 in1003.0 mb - 0.00 in0.0 mm 0.11 in2.8 mm
09:00 AM 52.8°F11.6°C 52.5°F11.4°C 99% 2.7 mph SSE4.3 kmh SSE 3.0 mph4.8 kmh 29.62 in1003.0 mb - 0.00 in0.0 mm 0.11 in2.8 mm
08:30 AM 53.2°F11.8°C 52.9°F11.6°C 99% 4.2 mph S6.8 kmh S 6.0 mph9.7 kmh 29.62 in1003.0 mb - 0.00 in0.0 mm 0.11 in2.8 mm
08:00 AM 51.8°F11.0°C 51.6°F10.9°C 99% 7.8 mph S12.6 kmh S 14.0 mph22.5 kmh 29.63 in1003.4 mb - 0.00 in0.0 mm 0.11 in2.8 mm
07:30 AM 50.6°F10.3°C 50.1°F10.1°C 98% 7.2 mph S11.6 kmh S 8.0 mph12.9 kmh 29.64 in1003.7 mb - 0.01 in0.3 mm 0.11 in2.8 mm
07:00 AM 50.1°F10.1°C 49.6°F9.8°C 98% 3.2 mph S5.1 kmh S 6.0 mph9.7 kmh 29.66 in1004.4 mb - 0.01 in0.3 mm 0.10 in2.5 mm
06:30 AM 48.8°F9.3°C 48.3°F9.1°C 98% 3.9 mph SSE6.3 kmh SSE 10.0 mph16.1 kmh 29.66 in1004.4 mb - 0.01 in0.3 mm 0.09 in2.3 mm
06:00 AM 47.4°F8.6°C 46.6°F8.1°C 97% 2.6 mph SE4.2 kmh SE 3.0 mph4.8 kmh 29.69 in1005.4 mb - 0.00 in0.0 mm 0.08 in2.0 mm
05:30 AM 46.5°F8.1°C 45.1°F7.3°C 95% 0.9 mph SE1.4 kmh SE 2.0 mph3.2 kmh 29.72 in1006.4 mb - 0.00 in0.0 mm 0.08 in2.0 mm
05:00 AM 46.2°F7.9°C 44.6°F7.0°C 94% 1.8 mph SE2.9 kmh SE 3.0 mph4.8 kmh 29.74 in1007.1 mb - 0.02 in0.5 mm 0.08 in2.0 mm
04:30 AM 46.0°F7.8°C 43.5°F6.4°C 91% 1.8 mph SE2.9 kmh SE 3.0 mph4.8 kmh 29.75 in1007.5 mb - 0.06 in1.5 mm 0.06 in1.5 mm
04:00 AM 45.8°F7.7°C 42.4°F5.8°C 88% 2.9 mph SE4.7 kmh SE 5.0 mph8.0 kmh 29.77 in1008.1 mb - 0.00 in0.0 mm 0.00 in0.0 mm
03:30 AM 45.6°F7.6°C 42.0°F5.6°C 87% 3.4 mph SE5.5 kmh SE 6.0 mph9.7 kmh 29.78 in1008.5 mb - 0.00 in0.0 mm 0.00 in0.0 mm
03:00 AM 45.5°F7.5°C 41.6°F5.3°C 86% 3.5 mph SE5.6 kmh SE 7.0 mph11.3 kmh 29.80 in1009.1 mb - 0.00 in0.0 mm 0.00 in0.0 mm
02:30 AM 45.2°F7.3°C 41.3°F5.2°C 86% 1.5 mph SE2.4 kmh SE 2.0 mph3.2 kmh 29.83 in1010.2 mb - 0.00 in0.0 mm 0.00 in0.0 mm
02:00 AM 44.9°F7.2°C 40.7°F4.8°C 85% 2.2 mph SE3.5 kmh SE 5.0 mph8.0 kmh 29.84 in1010.5 mb - 0.00 in0.0 mm 0.00 in0.0 mm
01:30 AM 44.8°F7.1°C 40.6°F4.8°C 85% 0.5 mph SE0.8 kmh SE 3.0 mph4.8 kmh 29.86 in1011.2 mb - 0.00 in0.0 mm 0.00 in0.0 mm
01:00 AM 44.5°F6.9°C 40.3°F4.6°C 85% 2.2 mph SSE3.5 kmh SSE 5.0 mph8.0 kmh 29.88 in1011.9 mb - 0.00 in0.0 mm 0.00 in0.0 mm
12:30 AM 45.2°F7.3°C 40.3°F4.6°C 83% 2.7 mph SSE4.3 kmh SSE 6.0 mph9.7 kmh 29.90 in1012.5 mb - 0.00 in0.0 mm 0.00 in0.0 mm
12:00 AM 45.9°F7.7°C 40.4°F4.7°C 81% 5.2 mph SSE8.4 kmh SSE 7.0 mph11.3 kmh 29.91 in1012.9 mb - 0.00 in0.0 mm 0.00 in0.0 mm